sensor_id;sensor_type;location;lat;lon;timestamp;pressure;altitude;pressure_sealevel;temperature;humidity
52983;BME280;48698;45.736;13.926;2023-02-07T00:01:47;99404.41;;;-3.66;100.00
52983;BME280;48698;45.736;13.926;2023-02-07T00:07:01;99407.09;;;-3.62;100.00
52983;BME280;48698;45.736;13.926;2023-02-07T00:12:05;99303.03;;;-4.22;100.00
52983;BME280;48698;45.736;13.926;2023-02-07T00:17:09;99322.00;;;-3.98;100.00
52983;BME280;48698;45.736;13.926;2023-02-07T00:22:12;99330.94;;;-4.15;100.00
52983;BME280;48698;45.736;13.926;2023-02-07T00:27:16;99298.06;;;-4.41;100.00
52983;BME280;48698;45.736;13.926;2023-02-07T00:32:20;99437.06;;;-3.72;100.00
52983;BME280;48698;45.736;13.926;2023-02-07T00:37:23;99283.63;;;-4.58;100.00
52983;BME280;48698;45.736;13.926;2023-02-07T00:42:27;99309.16;;;-4.45;100.00
52983;BME280;48698;45.736;13.926;2023-02-07T00:47:37;99190.31;;;-5.33;100.00
52983;BME280;48698;45.736;13.926;2023-02-07T00:52:41;99244.28;;;-4.97;100.00
52983;BME280;48698;45.736;13.926;2023-02-07T00:57:44;99451.97;;;-3.67;100.00
52983;BME280;48698;45.736;13.926;2023-02-07T01:02:48;99371.25;;;-4.25;100.00
52983;BME280;48698;45.736;13.926;2023-02-07T01:07:51;99484.81;;;-3.69;100.00
52983;BME280;48698;45.736;13.926;2023-02-07T01:12:55;99238.44;;;-5.15;100.00
52983;BME280;48698;45.736;13.926;2023-02-07T01:17:58;99438.94;;;-3.93;100.00
52983;BME280;48698;45.736;13.926;2023-02-07T01:23:03;99430.94;;;-3.99;100.00
52983;BME280;48698;45.736;13.926;2023-02-07T01:28:07;99387.03;;;-4.19;100.00
52983;BME280;48698;45.736;13.926;2023-02-07T01:33:11;99163.94;;;-5.46;100.00
52983;BME280;48698;45.736;13.926;2023-02-07T01:38:15;99346.72;;;-4.34;100.00
52983;BME280;48698;45.736;13.926;2023-02-07T01:43:21;99288.84;;;-4.57;100.00
52983;BME280;48698;45.736;13.926;2023-02-07T01:48:31;99437.00;;;-3.74;100.00
52983;BME280;48698;45.736;13.926;2023-02-07T01:53:37;99436.09;;;-3.76;100.00
52983;BME280;48698;45.736;13.926;2023-02-07T01:58:41;99108.78;;;-5.93;100.00
52983;BME280;48698;45.736;13.926;2023-02-07T02:03:48;99417.16;;;-3.98;100.00
52983;BME280;48698;45.736;13.926;2023-02-07T02:09:00;99425.41;;;-3.85;100.00
52983;BME280;48698;45.736;13.926;2023-02-07T02:19:27;99427.84;;;-3.89;100.00
52983;BME280;48698;45.736;13.926;2023-02-07T02:35:54;99418.94;;;-3.96;100.00
52983;BME280;48698;45.736;13.926;2023-02-07T02:41:08;99405.25;;;-3.92;100.00
52983;BME280;48698;45.736;13.926;2023-02-07T02:46:43;99414.16;;;-3.84;100.00
52983;BME280;48698;45.736;13.926;2023-02-07T02:51:51;99388.91;;;-3.89;100.00
52983;BME280;48698;45.736;13.926;2023-02-07T03:07:47;99435.41;;;-3.43;100.00
52983;BME280;48698;45.736;13.926;2023-02-07T03:18:16;99406.28;;;-3.87;100.00
52983;BME280;48698;45.736;13.926;2023-02-07T03:23:22;99319.63;;;-4.67;100.00
52983;BME280;48698;45.736;13.926;2023-02-07T03:28:26;99458.28;;;-4.09;100.00
52983;BME280;48698;45.736;13.926;2023-02-07T03:33:39;99131.75;;;-6.02;100.00
52983;BME280;48698;45.736;13.926;2023-02-07T03:38:44;99489.44;;;-3.84;100.00
52983;BME280;48698;45.736;13.926;2023-02-07T03:43:49;99352.66;;;-4.62;100.00
52983;BME280;48698;45.736;13.926;2023-02-07T03:48:53;99297.28;;;-5.11;100.00
52983;BME280;48698;45.736;13.926;2023-02-07T03:53:58;99399.44;;;-4.59;100.00
52983;BME280;48698;45.736;13.926;2023-02-07T03:59:02;99483.91;;;-4.18;100.00
52983;BME280;48698;45.736;13.926;2023-02-07T04:04:15;99381.56;;;-4.75;100.00
52983;BME280;48698;45.736;13.926;2023-02-07T04:09:19;99176.25;;;-5.88;100.00
52983;BME280;48698;45.736;13.926;2023-02-07T04:14:23;99403.28;;;-4.48;100.00
52983;BME280;48698;45.736;13.926;2023-02-07T04:19:27;99320.63;;;-5.11;100.00
52983;BME280;48698;45.736;13.926;2023-02-07T04:24:31;99467.97;;;-4.05;100.00
52983;BME280;48698;45.736;13.926;2023-02-07T04:29:35;99464.97;;;-4.15;100.00
52983;BME280;48698;45.736;13.926;2023-02-07T04:34:39;99465.25;;;-4.32;100.00
52983;BME280;48698;45.736;13.926;2023-02-07T04:39:43;99246.53;;;-5.54;100.00
52983;BME280;48698;45.736;13.926;2023-02-07T04:44:47;99342.78;;;-4.96;100.00
52983;BME280;48698;45.736;13.926;2023-02-07T04:50:00;99351.84;;;-5.07;100.00
52983;BME280;48698;45.736;13.926;2023-02-07T04:55:04;99460.66;;;-4.62;100.00
52983;BME280;48698;45.736;13.926;2023-02-07T05:00:09;99459.63;;;-4.67;100.00
52983;BME280;48698;45.736;13.926;2023-02-07T05:05:12;99385.69;;;-5.04;100.00
52983;BME280;48698;45.736;13.926;2023-02-07T05:10:16;99552.41;;;-4.13;100.00
52983;BME280;48698;45.736;13.926;2023-02-07T05:15:20;99415.56;;;-4.90;100.00
52983;BME280;48698;45.736;13.926;2023-02-07T05:20:25;99543.59;;;-4.18;100.00
52983;BME280;48698;45.736;13.926;2023-02-07T05:25:28;99484.22;;;-4.56;100.00
52983;BME280;48698;45.736;13.926;2023-02-07T05:30:32;99367.25;;;-5.34;100.00
52983;BME280;48698;45.736;13.926;2023-02-07T05:35:37;99547.91;;;-4.19;100.00
52983;BME280;48698;45.736;13.926;2023-02-07T05:40:41;99550.72;;;-3.89;100.00
52983;BME280;48698;45.736;13.926;2023-02-07T05:45:45;99253.78;;;-5.90;100.00
52983;BME280;48698;45.736;13.926;2023-02-07T05:50:48;99391.38;;;-5.12;100.00
52983;BME280;48698;45.736;13.926;2023-02-07T05:55:52;99440.19;;;-5.01;100.00
52983;BME280;48698;45.736;13.926;2023-02-07T06:00:56;99478.59;;;-4.68;100.00
52983;BME280;48698;45.736;13.926;2023-02-07T06:06:01;99303.09;;;-5.85;100.00
52983;BME280;48698;45.736;13.926;2023-02-07T06:11:05;99431.94;;;-4.91;100.00
52983;BME280;48698;45.736;13.926;2023-02-07T06:16:19;99568.16;;;-4.31;100.00
52983;BME280;48698;45.736;13.926;2023-02-07T06:21:23;99497.06;;;-4.59;100.00
52983;BME280;48698;45.736;13.926;2023-02-07T06:26:39;99432.09;;;-4.86;100.00
52983;BME280;48698;45.736;13.926;2023-02-07T06:31:42;99447.44;;;-4.92;100.00
52983;BME280;48698;45.736;13.926;2023-02-07T06:36:46;99412.88;;;-5.37;100.00
52983;BME280;48698;45.736;13.926;2023-02-07T06:41:50;99506.13;;;-4.93;100.00
52983;BME280;48698;45.736;13.926;2023-02-07T06:46:55;99500.84;;;-4.74;100.00
52983;BME280;48698;45.736;13.926;2023-02-07T06:51:59;99290.69;;;-5.71;100.00
52983;BME280;48698;45.736;13.926;2023-02-07T06:57:03;99380.31;;;-5.31;100.00
52983;BME280;48698;45.736;13.926;2023-02-07T07:02:10;99336.34;;;-5.51;100.00
52983;BME280;48698;45.736;13.926;2023-02-07T07:07:14;99279.66;;;-5.67;100.00
52983;BME280;48698;45.736;13.926;2023-02-07T07:12:18;99558.03;;;-4.01;100.00
52983;BME280;48698;45.736;13.926;2023-02-07T07:17:25;99504.31;;;-4.27;100.00
52983;BME280;48698;45.736;13.926;2023-02-07T07:22:29;99562.63;;;-3.70;100.00
52983;BME280;48698;45.736;13.926;2023-02-07T07:27:33;99575.72;;;-3.67;100.00
52983;BME280;48698;45.736;13.926;2023-02-07T07:32:37;99482.06;;;-3.97;100.00
52983;BME280;48698;45.736;13.926;2023-02-07T07:37:40;99546.34;;;-3.66;100.00
52983;BME280;48698;45.736;13.926;2023-02-07T07:42:44;99547.75;;;-3.50;100.00
52983;BME280;48698;45.736;13.926;2023-02-07T07:47:48;99281.41;;;-4.97;100.00
52983;BME280;48698;45.736;13.926;2023-02-07T07:52:51;99431.94;;;-3.96;100.00
52983;BME280;48698;45.736;13.926;2023-02-07T07:57:55;99423.22;;;-3.98;100.00
52983;BME280;48698;45.736;13.926;2023-02-07T08:02:59;99426.38;;;-3.54;100.00
52983;BME280;48698;45.736;13.926;2023-02-07T08:08:02;99545.31;;;-2.94;100.00
52983;BME280;48698;45.736;13.926;2023-02-07T08:13:06;99538.47;;;-2.64;100.00
52983;BME280;48698;45.736;13.926;2023-02-07T08:18:11;99318.63;;;-3.95;100.00
52983;BME280;48698;45.736;13.926;2023-02-07T08:23:14;99416.31;;;-3.45;100.00
52983;BME280;48698;45.736;13.926;2023-02-07T08:28:18;99542.84;;;-2.63;100.00
52983;BME280;48698;45.736;13.926;2023-02-07T08:33:22;99523.47;;;-2.72;100.00
52983;BME280;48698;45.736;13.926;2023-02-07T08:38:26;99542.69;;;-2.67;100.00
52983;BME280;48698;45.736;13.926;2023-02-07T08:43:30;99501.00;;;-2.70;100.00
52983;BME280;48698;45.736;13.926;2023-02-07T08:48:34;99523.63;;;-2.39;100.00
52983;BME280;48698;45.736;13.926;2023-02-07T08:53:38;99416.44;;;-2.86;100.00
52983;BME280;48698;45.736;13.926;2023-02-07T08:58:41;99385.66;;;-2.71;100.00
52983;BME280;48698;45.736;13.926;2023-02-07T09:03:45;99521.31;;;-1.99;100.00
52983;BME280;48698;45.736;13.926;2023-02-07T09:08:49;99251.16;;;-3.37;100.00
52983;BME280;48698;45.736;13.926;2023-02-07T09:13:53;99367.41;;;-2.42;100.00
52983;BME280;48698;45.736;13.926;2023-02-07T09:19:07;99370.44;;;-2.58;100.00
52983;BME280;48698;45.736;13.926;2023-02-07T09:24:11;99264.09;;;-2.78;100.00
52983;BME280;48698;45.736;13.926;2023-02-07T09:29:15;99482.13;;;-1.38;100.00
52983;BME280;48698;45.736;13.926;2023-02-07T09:34:19;99181.31;;;-2.95;100.00
52983;BME280;48698;45.736;13.926;2023-02-07T09:39:22;99383.97;;;-1.73;100.00
52983;BME280;48698;45.736;13.926;2023-02-07T09:45:04;99497.91;;;-0.97;100.00
52983;BME280;48698;45.736;13.926;2023-02-07T09:50:12;99355.78;;;-1.53;100.00
52983;BME280;48698;45.736;13.926;2023-02-07T09:55:21;99500.72;;;-0.49;100.00
52983;BME280;48698;45.736;13.926;2023-02-07T10:00:31;99340.53;;;-0.98;100.00
52983;BME280;48698;45.736;13.926;2023-02-07T10:05:42;99485.59;;;-0.25;97.20
52983;BME280;48698;45.736;13.926;2023-02-07T10:16:21;99462.16;;;0.71;90.17
52983;BME280;48698;45.736;13.926;2023-02-07T10:26:40;99447.00;;;1.66;85.23
52983;BME280;48698;45.736;13.926;2023-02-07T10:31:50;99301.22;;;0.94;81.79
52983;BME280;48698;45.736;13.926;2023-02-07T10:37:22;99361.41;;;0.97;79.77
52983;BME280;48698;45.736;13.926;2023-02-07T10:42:28;99374.84;;;1.23;77.93
52983;BME280;48698;45.736;13.926;2023-02-07T10:47:36;99277.81;;;0.41;73.96
52983;BME280;48698;45.736;13.926;2023-02-07T10:52:55;99453.16;;;1.71;72.44
52983;BME280;48698;45.736;13.926;2023-02-07T10:57:59;99281.47;;;0.52;69.18
52983;BME280;48698;45.736;13.926;2023-02-07T11:03:23;99436.69;;;1.81;70.74
52983;BME280;48698;45.736;13.926;2023-02-07T11:08:30;99321.66;;;1.24;67.97
52983;BME280;48698;45.736;13.926;2023-02-07T11:13:46;99318.00;;;1.11;66.33
52983;BME280;48698;45.736;13.926;2023-02-07T11:19:21;99378.28;;;1.88;67.85
52983;BME280;48698;45.736;13.926;2023-02-07T11:24:29;99266.34;;;0.95;67.93
52983;BME280;48698;45.736;13.926;2023-02-07T11:34:51;99298.72;;;1.80;67.61
52983;BME280;48698;45.736;13.926;2023-02-07T11:45:21;99313.84;;;2.08;67.07
52983;BME280;48698;45.736;13.926;2023-02-07T11:50:35;99240.09;;;1.67;65.19
52983;BME280;48698;45.736;13.926;2023-02-07T11:55:42;99329.50;;;2.03;65.75
52983;BME280;48698;45.736;13.926;2023-02-07T12:00:46;99339.13;;;2.01;65.80
52983;BME280;48698;45.736;13.926;2023-02-07T12:05:59;99401.59;;;2.49;64.82
52983;BME280;48698;45.736;13.926;2023-02-07T12:11:10;99335.75;;;2.19;64.03
52983;BME280;48698;45.736;13.926;2023-02-07T12:16:19;99400.91;;;2.72;65.03
52983;BME280;48698;45.736;13.926;2023-02-07T12:26:31;99378.47;;;3.19;66.32
52983;BME280;48698;45.736;13.926;2023-02-07T12:31:46;99297.66;;;2.64;64.38
52983;BME280;48698;45.736;13.926;2023-02-07T12:37:04;99228.59;;;2.62;65.49
52983;BME280;48698;45.736;13.926;2023-02-07T12:42:30;99352.34;;;3.46;65.70
52983;BME280;48698;45.736;13.926;2023-02-07T12:47:48;99311.00;;;3.03;64.42
52983;BME280;48698;45.736;13.926;2023-02-07T13:03:54;99317.34;;;3.50;62.60
52983;BME280;48698;45.736;13.926;2023-02-07T13:09:09;99262.13;;;3.25;64.03
52983;BME280;48698;45.736;13.926;2023-02-07T13:25:28;99244.56;;;3.16;62.61
52983;BME280;48698;45.736;13.926;2023-02-07T13:30:33;99281.44;;;3.46;61.97
52983;BME280;48698;45.736;13.926;2023-02-07T13:35:48;99232.28;;;3.06;59.55
52983;BME280;48698;45.736;13.926;2023-02-07T13:41:00;99323.50;;;3.54;58.37
52983;BME280;48698;45.736;13.926;2023-02-07T13:52:06;99223.53;;;3.08;58.42
52983;BME280;48698;45.736;13.926;2023-02-07T14:03:04;99198.13;;;3.00;59.30
52983;BME280;48698;45.736;13.926;2023-02-07T14:24:03;99299.69;;;3.19;60.78
52983;BME280;48698;45.736;13.926;2023-02-07T14:34:30;99298.91;;;3.31;61.52
52983;BME280;48698;45.736;13.926;2023-02-07T14:39:34;99090.97;;;1.91;63.05
52983;BME280;48698;45.736;13.926;2023-02-07T14:44:39;99306.75;;;3.29;63.00
52983;BME280;48698;45.736;13.926;2023-02-07T14:49:47;99046.16;;;1.47;63.53
52983;BME280;48698;45.736;13.926;2023-02-07T14:54:54;99203.97;;;2.40;63.68
52983;BME280;48698;45.736;13.926;2023-02-07T15:10:38;99259.25;;;2.73;59.74
52983;BME280;48698;45.736;13.926;2023-02-07T15:15:58;99302.03;;;2.66;62.20
52983;BME280;48698;45.736;13.926;2023-02-07T15:21:22;99288.84;;;2.54;62.39
52983;BME280;48698;45.736;13.926;2023-02-07T15:26:37;99111.47;;;1.29;64.58
52983;BME280;48698;45.736;13.926;2023-02-07T15:31:41;99323.69;;;2.39;65.70
52983;BME280;48698;45.736;13.926;2023-02-07T15:36:47;99341.91;;;2.21;65.95
52983;BME280;48698;45.736;13.926;2023-02-07T15:42:01;99325.22;;;2.12;63.61
52983;BME280;48698;45.736;13.926;2023-02-07T15:47:06;99308.00;;;2.41;64.27
52983;BME280;48698;45.736;13.926;2023-02-07T15:57:35;99266.78;;;1.31;65.97
52983;BME280;48698;45.736;13.926;2023-02-07T16:03:02;99354.75;;;1.94;64.95
52983;BME280;48698;45.736;13.926;2023-02-07T16:08:43;99347.31;;;1.53;61.02
52983;BME280;48698;45.736;13.926;2023-02-07T16:19:28;99376.38;;;1.07;58.88
52983;BME280;48698;45.736;13.926;2023-02-07T16:24:35;99311.13;;;0.55;59.03
52983;BME280;48698;45.736;13.926;2023-02-07T16:29:40;99358.66;;;0.31;61.07
52983;BME280;48698;45.736;13.926;2023-02-07T16:34:44;99427.16;;;0.63;63.09
52983;BME280;48698;45.736;13.926;2023-02-07T16:40:09;99331.94;;;-0.04;65.58
52983;BME280;48698;45.736;13.926;2023-02-07T16:50:22;99402.53;;;-0.01;68.15
52983;BME280;48698;45.736;13.926;2023-02-07T16:55:27;99360.22;;;-0.28;68.00
52983;BME280;48698;45.736;13.926;2023-02-07T17:00:40;99257.91;;;-1.00;67.46
52983;BME280;48698;45.736;13.926;2023-02-07T17:05:44;99169.22;;;-1.45;67.54
52983;BME280;48698;45.736;13.926;2023-02-07T17:10:52;99079.34;;;-2.09;68.17
52983;BME280;48698;45.736;13.926;2023-02-07T17:15:57;99111.34;;;-2.13;69.16
52983;BME280;48698;45.736;13.926;2023-02-07T17:21:00;99239.09;;;-1.28;69.12
52983;BME280;48698;45.736;13.926;2023-02-07T17:26:08;99064.03;;;-2.34;69.79
52983;BME280;48698;45.736;13.926;2023-02-07T17:31:13;99302.00;;;-1.11;69.66
52983;BME280;48698;45.736;13.926;2023-02-07T17:36:17;99066.38;;;-2.45;69.63
52983;BME280;48698;45.736;13.926;2023-02-07T17:41:21;99302.72;;;-1.18;70.42
52983;BME280;48698;45.736;13.926;2023-02-07T17:46:26;99430.06;;;-0.60;70.83
52983;BME280;48698;45.736;13.926;2023-02-07T17:51:30;99451.78;;;-0.60;70.92
52983;BME280;48698;45.736;13.926;2023-02-07T17:56:33;99433.34;;;-0.69;71.64
52983;BME280;48698;45.736;13.926;2023-02-07T18:01:47;99450.63;;;-0.74;71.58
52983;BME280;48698;45.736;13.926;2023-02-07T18:06:50;99144.91;;;-2.61;72.22
52983;BME280;48698;45.736;13.926;2023-02-07T18:11:54;99144.88;;;-2.63;72.67
52983;BME280;48698;45.736;13.926;2023-02-07T18:16:57;99360.25;;;-1.48;73.02
52983;BME280;48698;45.736;13.926;2023-02-07T18:22:01;99354.09;;;-1.87;73.92
52983;BME280;48698;45.736;13.926;2023-02-07T18:27:04;99417.72;;;-1.42;74.41
52983;BME280;48698;45.736;13.926;2023-02-07T18:32:08;99283.84;;;-2.20;74.98
52983;BME280;48698;45.736;13.926;2023-02-07T18:37:12;99381.16;;;-1.81;76.24
52983;BME280;48698;45.736;13.926;2023-02-07T18:42:15;99406.88;;;-1.60;76.91
52983;BME280;48698;45.736;13.926;2023-02-07T18:47:20;99409.69;;;-1.52;78.27
52983;BME280;48698;45.736;13.926;2023-02-07T18:52:24;99441.31;;;-1.37;78.76
52983;BME280;48698;45.736;13.926;2023-02-07T18:57:28;99441.50;;;-1.30;79.86
52983;BME280;48698;45.736;13.926;2023-02-07T19:02:32;99397.34;;;-1.60;80.95
52983;BME280;48698;45.736;13.926;2023-02-07T19:07:36;99429.03;;;-1.41;82.19
52983;BME280;48698;45.736;13.926;2023-02-07T19:12:39;99150.13;;;-2.95;83.36
52983;BME280;48698;45.736;13.926;2023-02-07T19:17:43;99316.31;;;-2.06;85.06
52983;BME280;48698;45.736;13.926;2023-02-07T19:22:46;99301.25;;;-1.83;86.68
52983;BME280;48698;45.736;13.926;2023-02-07T19:28:02;99239.72;;;-2.16;87.67
52983;BME280;48698;45.736;13.926;2023-02-07T19:33:06;99219.03;;;-2.45;88.47
52983;BME280;48698;45.736;13.926;2023-02-07T19:38:10;99423.91;;;-1.38;89.90
52983;BME280;48698;45.736;13.926;2023-02-07T19:43:14;99264.09;;;-2.45;91.21
52983;BME280;48698;45.736;13.926;2023-02-07T19:48:17;99335.50;;;-2.01;91.92
52983;BME280;48698;45.736;13.926;2023-02-07T19:53:21;99361.16;;;-1.82;93.09
52983;BME280;48698;45.736;13.926;2023-02-07T19:58:24;99304.88;;;-2.45;93.82
52983;BME280;48698;45.736;13.926;2023-02-07T20:03:28;99312.00;;;-2.04;92.43
52983;BME280;48698;45.736;13.926;2023-02-07T20:08:31;99382.53;;;-1.61;91.93
52983;BME280;48698;45.736;13.926;2023-02-07T20:13:39;99341.47;;;-2.05;93.93
52983;BME280;48698;45.736;13.926;2023-02-07T20:18:42;99430.47;;;-1.54;93.64
52983;BME280;48698;45.736;13.926;2023-02-07T20:23:48;99426.63;;;-1.70;96.13
52983;BME280;48698;45.736;13.926;2023-02-07T20:28:54;99336.56;;;-2.27;98.31
52983;BME280;48698;45.736;13.926;2023-02-07T20:33:57;99294.13;;;-2.57;97.81
52983;BME280;48698;45.736;13.926;2023-02-07T20:39:01;99306.16;;;-2.63;97.36
52983;BME280;48698;45.736;13.926;2023-02-07T20:44:09;99392.94;;;-2.28;95.59
52983;BME280;48698;45.736;13.926;2023-02-07T20:49:26;99447.59;;;-1.96;98.08
52983;BME280;48698;45.736;13.926;2023-02-07T20:54:30;99333.97;;;-2.90;98.88
52983;BME280;48698;45.736;13.926;2023-02-07T20:59:34;99404.25;;;-2.27;96.93
52983;BME280;48698;45.736;13.926;2023-02-07T21:04:38;99100.06;;;-3.84;95.38
52983;BME280;48698;45.736;13.926;2023-02-07T21:09:51;99288.41;;;-2.44;89.87
52983;BME280;48698;45.736;13.926;2023-02-07T21:15:02;99153.59;;;-3.59;93.33
52983;BME280;48698;45.736;13.926;2023-02-07T21:20:06;99087.38;;;-4.04;95.32
52983;BME280;48698;45.736;13.926;2023-02-07T21:25:09;99087.25;;;-4.09;96.26
52983;BME280;48698;45.736;13.926;2023-02-07T21:30:23;99360.19;;;-2.52;97.57
52983;BME280;48698;45.736;13.926;2023-02-07T21:35:27;99296.78;;;-2.87;98.93
52983;BME280;48698;45.736;13.926;2023-02-07T21:40:30;99410.78;;;-2.41;100.00
52983;BME280;48698;45.736;13.926;2023-02-07T21:45:35;99321.13;;;-2.85;100.00
52983;BME280;48698;45.736;13.926;2023-02-07T21:50:38;99381.25;;;-2.43;100.00
52983;BME280;48698;45.736;13.926;2023-02-07T21:55:42;99333.84;;;-2.94;100.00
52983;BME280;48698;45.736;13.926;2023-02-07T22:00:46;99446.63;;;-2.31;100.00
52983;BME280;48698;45.736;13.926;2023-02-07T22:05:50;99458.41;;;-2.14;100.00
52983;BME280;48698;45.736;13.926;2023-02-07T22:10:55;99297.28;;;-3.30;100.00
52983;BME280;48698;45.736;13.926;2023-02-07T22:15:59;99235.78;;;-3.59;100.00
52983;BME280;48698;45.736;13.926;2023-02-07T22:21:15;99445.97;;;-2.24;100.00
52983;BME280;48698;45.736;13.926;2023-02-07T22:26:20;99458.16;;;-2.22;100.00
52983;BME280;48698;45.736;13.926;2023-02-07T22:31:26;99137.78;;;-4.25;100.00
52983;BME280;48698;45.736;13.926;2023-02-07T22:36:32;99320.09;;;-3.20;100.00
52983;BME280;48698;45.736;13.926;2023-02-07T22:41:36;99503.06;;;-2.30;100.00
52983;BME280;48698;45.736;13.926;2023-02-07T22:46:40;99492.56;;;-2.33;100.00
52983;BME280;48698;45.736;13.926;2023-02-07T22:51:46;99458.47;;;-2.42;100.00
52983;BME280;48698;45.736;13.926;2023-02-07T22:57:02;99329.44;;;-3.27;100.00
52983;BME280;48698;45.736;13.926;2023-02-07T23:02:06;99478.56;;;-2.37;100.00
52983;BME280;48698;45.736;13.926;2023-02-07T23:07:10;99373.97;;;-3.15;100.00
52983;BME280;48698;45.736;13.926;2023-02-07T23:12:14;99164.28;;;-4.35;100.00
52983;BME280;48698;45.736;13.926;2023-02-07T23:17:18;99323.88;;;-3.39;100.00
52983;BME280;48698;45.736;13.926;2023-02-07T23:22:22;99450.03;;;-2.64;100.00
52983;BME280;48698;45.736;13.926;2023-02-07T23:27:25;99404.28;;;-3.15;100.00
52983;BME280;48698;45.736;13.926;2023-02-07T23:32:29;99374.72;;;-3.19;100.00
52983;BME280;48698;45.736;13.926;2023-02-07T23:37:33;99505.78;;;-2.55;100.00
52983;BME280;48698;45.736;13.926;2023-02-07T23:42:43;99257.94;;;-3.99;100.00
52983;BME280;48698;45.736;13.926;2023-02-07T23:47:46;99303.72;;;-3.74;100.00
52983;BME280;48698;45.736;13.926;2023-02-07T23:52:59;99416.41;;;-3.16;100.00
52983;BME280;48698;45.736;13.926;2023-02-07T23:58:03;99368.56;;;-3.21;100.00
